createdAt,value
2022-11-29T00:01:47.430Z,8.7
2022-11-29T00:07:32.817Z,9.7
2022-11-29T00:13:17.163Z,8.7
2022-11-29T00:19:00.161Z,9.3
2022-11-29T00:24:44.202Z,9.4
2022-11-29T00:30:27.959Z,9
2022-11-29T00:36:11.434Z,8.6
2022-11-29T00:41:54.265Z,9.6
2022-11-29T00:47:37.113Z,8.8
2022-11-29T00:53:20.158Z,8.9
2022-11-29T00:59:03.148Z,8.8
2022-11-29T01:04:46.943Z,8.4
2022-11-29T01:10:29.979Z,8.8
2022-11-29T01:16:13.089Z,9.2
2022-11-29T01:21:56.289Z,9.1
2022-11-29T01:27:39.223Z,9
2022-11-29T01:33:24.532Z,8.4
2022-11-29T01:39:08.059Z,8.8
2022-11-29T01:45:16.757Z,9
2022-11-29T01:51:01.310Z,9.1
2022-11-29T01:56:45.634Z,9.1
2022-11-29T02:02:30.797Z,9.6
2022-11-29T02:08:15.462Z,9.1
2022-11-29T02:14:03.887Z,9.9
2022-11-29T02:19:58.434Z,9.2
2022-11-29T02:25:50.451Z,9.7
2022-11-29T02:31:42.578Z,10.6
2022-11-29T02:37:37.979Z,10.4
2022-11-29T02:43:32.435Z,10.6
2022-11-29T02:49:21.045Z,10.9
2022-11-29T02:55:08.040Z,10.2
2022-11-29T03:00:56.976Z,10.4
2022-11-29T03:06:44.974Z,9.9
2022-11-29T03:12:33.185Z,9.8
2022-11-29T03:18:24.737Z,9.8
2022-11-29T03:24:11.001Z,9.5
2022-11-29T03:29:57.694Z,9.3
2022-11-29T03:35:42.627Z,9.2
2022-11-29T03:41:27.226Z,9
2022-11-29T03:47:14.381Z,8.6
2022-11-29T03:52:59.684Z,8
2022-11-29T03:58:49.918Z,8.1
2022-11-29T04:04:44.599Z,8.3
2022-11-29T04:10:37.853Z,7.9
2022-11-29T04:16:34.948Z,7.7
2022-11-29T04:22:34.572Z,7.2
2022-11-29T04:28:29.530Z,7.4
2022-11-29T04:34:19.626Z,7.2
2022-11-29T04:40:06.926Z,7.1
2022-11-29T04:46:01.409Z,6.9
2022-11-29T04:51:52.472Z,6.9
2022-11-29T04:57:38.870Z,6.3
2022-11-29T05:03:26.867Z,6.1
2022-11-29T05:09:15.354Z,6.4
2022-11-29T05:15:05.552Z,6.3
2022-11-29T05:20:50.156Z,6.1
2022-11-29T05:26:35.433Z,6
2022-11-29T05:32:29.225Z,5.8
2022-11-29T05:38:18.000Z,5.6
2022-11-29T05:44:08.645Z,5.5
2022-11-29T05:49:58.297Z,5
2022-11-29T05:55:46.433Z,5.1
2022-11-29T06:01:31.503Z,5.1
2022-11-29T06:07:18.510Z,4.9
2022-11-29T06:13:06.532Z,4.8
2022-11-29T06:19:03.508Z,4.8
2022-11-29T06:24:54.321Z,4.2
2022-11-29T06:30:43.073Z,4.8
2022-11-29T06:36:29.208Z,4.4
2022-11-29T06:42:13.389Z,4.4
2022-11-29T06:47:59.269Z,4.2
2022-11-29T06:53:45.215Z,4.2
2022-11-29T06:59:36.432Z,4
2022-11-29T07:05:25.304Z,4.1
2022-11-29T07:11:10.894Z,4.4
2022-11-29T07:16:59.612Z,4.9
2022-11-29T07:22:49.268Z,4.7
2022-11-29T07:28:40.052Z,5
2022-11-29T07:34:27.162Z,5
2022-11-29T07:40:15.491Z,5.1
2022-11-29T07:45:58.762Z,5
2022-11-29T07:51:41.811Z,5.1
2022-11-29T07:57:25.672Z,5.2
2022-11-29T08:03:09.386Z,5.8
2022-11-29T08:08:52.392Z,5.6
2022-11-29T08:14:36.650Z,5.5
2022-11-29T08:20:20.846Z,6.1
2022-11-29T08:26:04.870Z,6.1
2022-11-29T08:31:47.818Z,6.2
2022-11-29T08:37:31.772Z,6.3
2022-11-29T08:43:14.977Z,6
2022-11-29T08:48:58.003Z,5.7
2022-11-29T08:54:40.958Z,5.5
2022-11-29T09:00:26.051Z,5.7
2022-11-29T09:06:14.896Z,5.6
2022-11-29T09:11:57.999Z,4.9
2022-11-29T09:17:40.962Z,5.1
2022-11-29T09:23:23.939Z,5.5
2022-11-29T09:29:07.461Z,5.1
2022-11-29T09:34:51.549Z,5.4
2022-11-29T09:40:40.267Z,4.8
2022-11-29T09:46:28.391Z,4.2
2022-11-29T09:52:15.992Z,4.8
2022-11-29T09:58:01.629Z,4.8
2022-11-29T10:03:46.421Z,4.5
2022-11-29T10:09:36.100Z,4
2022-11-29T10:15:21.328Z,3.8
2022-11-29T10:21:06.313Z,4.4
2022-11-29T10:26:49.218Z,4.2
2022-11-29T10:32:33.727Z,4.2
2022-11-29T10:38:31.746Z,4.6
2022-11-29T10:44:15.945Z,4.6
2022-11-29T10:49:58.933Z,4.4
2022-11-29T10:55:44.717Z,4.3
2022-11-29T11:01:27.927Z,4.2
2022-11-29T11:07:16.124Z,4.2
2022-11-29T11:13:07.050Z,4.6
2022-11-29T11:18:50.049Z,4.2
2022-11-29T11:24:34.200Z,4.3
2022-11-29T11:30:24.116Z,4.3
2022-11-29T11:36:13.541Z,4.1
2022-11-29T11:41:56.666Z,4.1
2022-11-29T11:47:43.858Z,4.1
2022-11-29T11:53:29.086Z,3.8
2022-11-29T11:59:17.319Z,3.9
2022-11-29T12:05:04.377Z,3.8
2022-11-29T12:10:49.781Z,3.7
2022-11-29T12:16:36.286Z,3.4
2022-11-29T12:22:23.906Z,3.6
2022-11-29T12:28:11.858Z,3.2
2022-11-29T12:34:06.320Z,3.5
2022-11-29T12:40:00.656Z,3.7
2022-11-29T12:45:50.161Z,3.7
2022-11-29T12:51:36.515Z,3.9
2022-11-29T12:57:25.110Z,4.1
2022-11-29T13:03:14.496Z,4.1
2022-11-29T13:09:03.313Z,4
2022-11-29T13:14:51.792Z,4.1
2022-11-29T13:20:40.330Z,4.1
2022-11-29T13:26:25.818Z,4.1
2022-11-29T13:32:16.007Z,4.2
2022-11-29T13:38:02.763Z,3.9
2022-11-29T13:43:48.900Z,4.3
2022-11-29T13:49:42.851Z,4.1
2022-11-29T13:55:28.316Z,4
2022-11-29T14:01:12.963Z,3.9
2022-11-29T14:07:00.882Z,4.2
2022-11-29T14:12:49.118Z,4.2
2022-11-29T14:18:43.346Z,4.4
2022-11-29T14:24:40.009Z,4.8
2022-11-29T14:30:34.616Z,4.9
2022-11-29T14:36:33.179Z,5.7
2022-11-29T14:42:19.020Z,5.1
2022-11-29T14:48:03.780Z,5.3
2022-11-29T14:53:49.489Z,5.5
2022-11-29T14:59:48.423Z,6.2
2022-11-29T15:05:35.139Z,5.8
2022-11-29T15:11:22.333Z,6.4
2022-11-29T15:17:18.193Z,6.2
2022-11-29T15:23:03.276Z,5.7
2022-11-29T15:28:47.087Z,5.9
2022-11-29T15:34:33.804Z,5.9
2022-11-29T15:40:18.828Z,8.4
2022-11-29T15:46:02.653Z,5.9
2022-11-29T15:51:48.256Z,5.7
2022-11-29T15:57:36.720Z,5.4
2022-11-29T16:03:22.569Z,5.4
2022-11-29T16:09:08.441Z,5.4
2022-11-29T16:14:56.472Z,5.5
2022-11-29T16:20:40.245Z,5.6
2022-11-29T16:26:25.420Z,5.6
2022-11-29T16:32:24.553Z,5.4
2022-11-29T16:38:13.738Z,5.3
2022-11-29T16:43:57.941Z,5.5
2022-11-29T16:49:41.351Z,5.3
2022-11-29T16:55:24.870Z,5.2
2022-11-29T17:01:20.802Z,5.2
2022-11-29T17:07:04.400Z,5.5
2022-11-29T17:12:50.414Z,5.4
2022-11-29T17:18:33.864Z,5.4
2022-11-29T17:24:18.413Z,5.6
2022-11-29T17:30:02.943Z,5.4
2022-11-29T17:35:46.258Z,5.5
2022-11-29T17:41:30.128Z,5.7
2022-11-29T17:47:15.009Z,5.8
2022-11-29T17:52:59.760Z,5.4
2022-11-29T17:58:43.187Z,5.3
2022-11-29T18:04:26.781Z,5.1
2022-11-29T18:10:11.105Z,5
2022-11-29T18:15:54.591Z,5.1
2022-11-29T18:21:38.562Z,5.5
2022-11-29T18:27:21.822Z,5.2
2022-11-29T18:33:06.022Z,5.3
2022-11-29T18:38:50.257Z,5.1
2022-11-29T18:44:33.829Z,5.6
2022-11-29T18:50:18.026Z,5
2022-11-29T18:56:05.888Z,5.7
2022-11-29T19:01:49.996Z,5.3
2022-11-29T19:07:33.815Z,5
2022-11-29T19:13:16.857Z,5.2
2022-11-29T19:19:00.808Z,5.5
2022-11-29T19:24:44.609Z,5.2
2022-11-29T19:30:28.242Z,5.6
2022-11-29T19:36:13.860Z,5.8
2022-11-29T19:41:56.952Z,5.6
2022-11-29T19:47:40.106Z,6
2022-11-29T19:53:23.385Z,6.1
2022-11-29T19:59:07.094Z,5.7
2022-11-29T20:04:50.287Z,5.7
2022-11-29T20:10:34.269Z,5.9
2022-11-29T20:16:18.348Z,5.6
2022-11-29T20:22:01.515Z,6.1
2022-11-29T20:27:44.406Z,5.6
2022-11-29T20:33:27.546Z,6.2
2022-11-29T20:39:15.521Z,5.7
2022-11-29T20:44:59.659Z,5.7
2022-11-29T20:50:45.635Z,5.9
2022-11-29T20:56:31.556Z,5.9
2022-11-29T21:02:14.623Z,6
2022-11-29T21:07:58.767Z,5.9
2022-11-29T21:13:42.670Z,6.1
2022-11-29T21:19:27.489Z,6.1
2022-11-29T21:25:13.870Z,6.1
2022-11-29T21:30:59.605Z,5.8
2022-11-29T21:36:45.695Z,5.8
2022-11-29T21:42:28.970Z,5.9
2022-11-29T21:48:12.374Z,5.6
2022-11-29T21:53:55.771Z,5.7
2022-11-29T21:59:38.857Z,6
2022-11-29T22:05:21.953Z,6
2022-11-29T22:11:06.558Z,5.9
2022-11-29T22:16:50.259Z,5.7
2022-11-29T22:22:33.508Z,5.7
2022-11-29T22:28:16.601Z,5.3
2022-11-29T22:33:59.828Z,5.2
2022-11-29T22:39:42.843Z,5.5
2022-11-29T22:45:25.890Z,5.3
2022-11-29T22:51:11.081Z,5.3
2022-11-29T22:56:54.342Z,4.8
2022-11-29T23:02:37.528Z,5.4
2022-11-29T23:08:20.608Z,5.3
2022-11-29T23:14:04.968Z,5.2
2022-11-29T23:19:48.092Z,5.3
2022-11-29T23:25:31.308Z,5
2022-11-29T23:31:15.938Z,5.3
2022-11-29T23:36:59.226Z,5.1
2022-11-29T23:42:48.240Z,5.3
2022-11-29T23:48:31.291Z,5.4
2022-11-29T23:54:15.425Z,5.3
2022-11-29T23:59:58.517Z,6
